Time;durP1;ratioP1;P1;durP2;ratioP2;P2;SDS_P1;SDS_P2;PMS_P1;PMS_P2;Temp;Humidity;BMP_temperature;BMP_pressure;BME280_temperature;BME280_humidity;BME280_pressure;Samples;Min_cycle;Max_cycle;Signal;HPM_P1;HPM_P2
2022/07/29 00:02:24;;;;;;;0.00;0.00;;;17.60;90.10;;;;;;4966115;28;20055;-85
2022/07/29 00:04:51;;;;;;;0.00;0.00;;;17.50;89.70;;;;;;4969833;28;20058;-85
2022/07/29 00:07:18;;;;;;;0.00;0.00;;;17.60;89.60;;;;;;4967263;28;20054;-85
2022/07/29 00:09:46;;;;;;;0.00;0.00;;;17.70;89.20;;;;;;4975352;28;20046;-85
2022/07/29 00:12:18;;;;;;;0.00;0.00;;;17.70;89.00;;;;;;4966976;28;20541;-85
2022/07/29 00:14:52;;;;;;;0.08;0.08;;;17.80;88.70;;;;;;4967797;28;20356;-86
2022/07/29 00:17:19;;;;;;;0.00;0.00;;;17.80;88.00;;;;;;4968088;28;20411;-86
2022/07/29 00:19:46;;;;;;;0.00;0.00;;;17.80;88.30;;;;;;4972004;28;20062;-86
2022/07/29 00:22:13;;;;;;;0.00;0.00;;;17.70;88.60;;;;;;4968543;28;20035;-85
2022/07/29 00:24:40;;;;;;;0.03;0.03;;;17.80;87.70;;;;;;4971066;28;20494;-85
2022/07/29 00:27:08;;;;;;;0.00;0.00;;;20.00;89.40;;;;;;4967937;28;20059;-86
2022/07/29 00:29:35;;;;;;;0.10;0.10;;;17.70;88.30;;;;;;4968757;28;20050;-86
2022/07/29 00:32:02;;;;;;;0.00;0.00;;;17.70;88.60;;;;;;4971913;28;20046;-85
2022/07/29 00:37:14;;;;;;;0.00;0.00;;;19.70;89.60;;;;;;4966344;28;20094;-87
2022/07/29 00:39:41;;;;;;;0.00;0.00;;;17.70;87.70;;;;;;4969241;28;20503;-86
2022/07/29 00:42:09;;;;;;;0.10;0.10;;;17.70;87.60;;;;;;4968312;28;20055;-86
2022/07/29 00:44:37;;;;;;;0.00;0.00;;;17.80;86.40;;;;;;4970798;28;20055;-86
2022/07/29 00:47:04;;;;;;;0.00;0.00;;;17.80;86.80;;;;;;4970812;28;20101;-86
2022/07/29 00:49:32;;;;;;;0.00;0.00;;;17.70;87.10;;;;;;4974780;28;20046;-87
2022/07/29 00:52:01;;;;;;;0.00;0.00;;;18.80;87.90;;;;;;4971939;28;20048;-85
2022/07/29 00:54:28;;;;;;;0.00;0.00;;;17.80;87.30;;;;;;4972992;28;20047;-86
2022/07/29 00:56:57;;;;;;;0.00;0.00;;;17.80;87.60;;;;;;4973289;28;20507;-86
2022/07/29 00:59:26;;;;;;;0.00;0.00;;;17.70;89.00;;;;;;4973023;28;20050;-85
2022/07/29 01:02:01;;;;;;;0.00;0.00;;;17.70;89.30;;;;;;4963742;28;20043;-86
2022/07/29 01:04:29;;;;;;;0.00;0.00;;;17.60;87.90;;;;;;4971872;28;20042;-86
2022/07/29 01:06:56;;;;;;;0.00;0.00;;;17.70;87.40;;;;;;4973068;28;20050;-85
2022/07/29 01:09:26;;;;;;;0.00;0.00;;;17.70;87.50;;;;;;4971091;28;20103;-85
2022/07/29 01:12:09;;;;;;;0.00;0.00;;;17.80;87.20;;;;;;4968831;28;20141;-85
2022/07/29 01:14:38;;;;;;;0.00;0.00;;;17.80;86.70;;;;;;4980439;28;20054;-85
2022/07/29 01:17:11;;;;;;;0.00;0.00;;;17.80;87.20;;;;;;4967150;28;20101;-85
2022/07/29 01:19:52;;;;;;;0.00;0.00;;;19.10;87.80;;;;;;4972366;28;20039;-84
2022/07/29 01:22:28;;;;;;;0.00;0.00;;;17.90;87.00;;;;;;4967546;28;20038;-85
2022/07/29 01:25:12;;;;;;;0.00;0.00;;;17.90;86.50;;;;;;4970328;28;20050;-85
2022/07/29 01:27:47;;;;;;;0.00;0.00;;;17.90;86.80;;;;;;4972291;28;20101;-86
2022/07/29 01:30:15;;;;;;;0.00;0.00;;;17.90;86.60;;;;;;4984961;28;20105;-86
2022/07/29 01:32:49;;;;;;;0.00;0.00;;;17.90;86.90;;;;;;4968645;28;20046;-86
2022/07/29 01:35:20;;;;;;;0.00;0.00;;;17.90;86.80;;;;;;4971748;28;20553;-86
2022/07/29 01:37:54;;;;;;;0.00;0.00;;;17.90;87.30;;;;;;4971924;28;20138;-85
2022/07/29 01:40:28;;;;;;;0.00;0.00;;;17.90;87.30;;;;;;4973050;28;20458;-85
2022/07/29 01:42:58;;;;;;;0.00;0.00;;;17.80;87.20;;;;;;4969494;28;20466;-85
2022/07/29 01:45:31;;;;;;;0.10;0.10;;;17.90;86.20;;;;;;4971764;28;20098;-87
2022/07/29 01:48:02;;;;;;;0.00;0.00;;;17.90;86.60;;;;;;4979912;28;20059;-85
2022/07/29 01:50:33;;;;;;;0.00;0.00;;;17.90;87.10;;;;;;4987762;28;20062;-86
2022/07/29 01:53:02;;;;;;;0.00;0.00;;;17.90;87.10;;;;;;4973056;28;20094;-85
2022/07/29 01:55:34;;;;;;;0.00;0.00;;;17.80;87.30;;;;;;4984561;28;20054;-85
2022/07/29 01:58:04;;;;;;;0.00;0.00;;;17.80;87.80;;;;;;4970269;28;20039;-86
2022/07/29 02:00:34;;;;;;;0.10;0.10;;;17.80;87.90;;;;;;4982437;28;20051;-86
2022/07/29 02:03:05;;;;;;;0.00;0.00;;;17.80;89.30;;;;;;4966906;28;20039;-87
2022/07/29 02:05:34;;;;;;;0.10;0.10;;;17.80;87.50;;;;;;4977037;28;20058;-85
2022/07/29 02:08:01;;;;;;;0.00;0.00;;;17.80;89.10;;;;;;4967015;28;20100;-86
2022/07/29 02:10:31;;;;;;;0.00;0.00;;;17.80;87.80;;;;;;4968629;28;20042;-85
2022/07/29 02:12:59;;;;;;;0.00;0.00;;;17.70;89.60;;;;;;4967949;28;20050;-86
2022/07/29 02:15:28;;;;;;;0.00;0.00;;;17.70;89.70;;;;;;4986025;28;20062;-86
2022/07/29 02:17:59;;;;;;;;;;;17.70;89.90;;;;;;4979006;28;20463;-85
2022/07/29 02:20:28;;;;;;;0.00;0.00;;;17.80;87.60;;;;;;4970246;28;19941;-86
2022/07/29 02:22:58;;;;;;;0.00;0.00;;;17.80;88.10;;;;;;4970748;28;20046;-83
2022/07/29 02:25:25;;;;;;;0.00;0.00;;;17.80;88.00;;;;;;4971498;28;20035;-85
2022/07/29 02:28:05;;;;;;;0.00;0.00;;;17.70;89.80;;;;;;4970525;28;20042;-85
2022/07/29 02:30:32;;;;;;;0.00;0.00;;;17.70;90.10;;;;;;4969207;28;20057;-85
2022/07/29 02:33:02;;;;;;;0.00;0.00;;;17.80;88.60;;;;;;4969869;28;20035;-86
2022/07/29 02:35:29;;;;;;;;;;;17.80;87.80;;;;;;4980562;28;20062;-85
2022/07/29 02:40:48;;;;;;;0.00;0.00;;;17.90;87.80;;;;;;4972689;28;20051;-84
2022/07/29 02:43:17;;;;;;;0.00;0.00;;;17.90;87.80;;;;;;4970860;28;20042;-85
2022/07/29 02:45:47;;;;;;;0.00;0.00;;;17.90;88.00;;;;;;4983301;28;20057;-84
2022/07/29 02:48:25;;;;;;;0.00;0.00;;;17.90;88.90;;;;;;4968129;28;20102;-86
2022/07/29 02:51:01;;;;;;;0.00;0.00;;;17.80;89.00;;;;;;4983122;28;20069;-87
2022/07/29 02:53:33;;;;;;;0.00;0.00;;;17.70;88.50;;;;;;4974862;28;20038;-85
2022/07/29 02:56:06;;;;;;;0.00;0.00;;;17.70;88.90;;;;;;4969440;28;20047;-85
2022/07/29 02:58:37;;;;;;;0.00;0.00;;;17.80;89.00;;;;;;4969963;28;20101;-85
2022/07/29 03:01:11;;;;;;;0.00;0.00;;;17.80;89.60;;;;;;4964300;28;20074;-85
2022/07/29 03:03:41;;;;;;;0.10;0.10;;;17.70;88.80;;;;;;4970241;28;20053;-86
2022/07/29 03:06:10;;;;;;;0.00;0.00;;;17.70;89.60;;;;;;4975001;28;20058;-85
2022/07/29 03:08:58;;;;;;;0.00;0.00;;;17.70;89.60;;;;;;4970862;28;20060;-85
2022/07/29 03:11:26;;;;;;;0.00;0.00;;;17.70;89.10;;;;;;4969247;28;20042;-86
2022/07/29 03:14:13;;;;;;;0.00;0.00;;;17.70;90.00;;;;;;4969919;28;20051;-85
2022/07/29 03:16:41;;;;;;;0.00;0.00;;;17.60;90.20;;;;;;4970398;28;20047;-86
2022/07/29 03:19:09;;;;;;;0.00;0.00;;;17.50;90.20;;;;;;4972888;28;20090;-85
2022/07/29 03:21:36;;;;;;;0.00;0.00;;;17.40;90.70;;;;;;4971427;28;20400;-84
2022/07/29 03:24:03;;;;;;;0.00;0.00;;;17.30;90.80;;;;;;4984390;28;20101;-85
2022/07/29 03:26:36;;;;;;;0.00;0.00;;;17.30;90.40;;;;;;4979643;28;20066;-83
2022/07/29 03:29:03;;;;;;;0.00;0.00;;;17.40;90.30;;;;;;4995801;23;20039;-82
2022/07/29 03:31:30;;;;;;;0.00;0.00;;;17.40;89.20;;;;;;4982010;28;20494;-83
2022/07/29 03:33:57;;;;;;;0.00;0.00;;;17.50;89.00;;;;;;4966921;28;20054;-83
2022/07/29 03:36:25;;;;;;;0.00;0.00;;;17.50;88.90;;;;;;4972959;28;20058;-84
2022/07/29 03:38:52;;;;;;;0.00;0.00;;;17.60;88.60;;;;;;4954252;28;20051;-82
2022/07/29 03:41:22;;;;;;;0.00;0.00;;;17.50;88.60;;;;;;4960800;28;20393;-84
2022/07/29 03:43:51;;;;;;;0.00;0.00;;;17.50;88.50;;;;;;4951158;28;20582;-82
2022/07/29 03:46:20;;;;;;;0.00;0.00;;;17.50;88.30;;;;;;4961712;28;20047;-83
2022/07/29 03:48:50;;;;;;;0.00;0.00;;;17.50;88.80;;;;;;4965246;28;20460;-82
2022/07/29 03:51:17;;;;;;;0.03;0.03;;;17.50;89.20;;;;;;4947956;28;20397;-83
2022/07/29 03:54:00;;;;;;;0.00;0.00;;;17.40;90.10;;;;;;4948899;28;20067;-83
2022/07/29 03:56:39;;;;;;;0.00;0.00;;;17.30;90.50;;;;;;4949560;28;20074;-81
2022/07/29 03:59:07;;;;;;;0.10;0.10;;;17.30;90.60;;;;;;4948684;28;20031;-83
2022/07/29 04:01:35;;;;;;;0.00;0.00;;;17.20;90.80;;;;;;4956276;28;20039;-84
2022/07/29 04:04:03;;;;;;;0.00;0.00;;;17.20;90.70;;;;;;4947376;28;20129;-82
2022/07/29 04:06:38;;;;;;;0.00;0.00;;;17.20;90.70;;;;;;4965173;28;20066;-83
2022/07/29 04:09:07;;;;;;;0.00;0.00;;;17.20;90.60;;;;;;4943547;28;20051;-84
2022/07/29 04:11:36;;;;;;;0.00;0.00;;;17.20;90.60;;;;;;4960704;28;20055;-84
2022/07/29 04:14:23;;;;;;;0.00;0.00;;;17.20;90.90;;;;;;4948927;28;20520;-82
2022/07/29 04:16:50;;;;;;;0.00;0.00;;;17.20;90.80;;;;;;4945820;28;20175;-82
2022/07/29 04:19:17;;;;;;;0.00;0.00;;;17.30;90.50;;;;;;4950703;28;20539;-84
2022/07/29 04:21:44;;;;;;;0.00;0.00;;;17.40;90.40;;;;;;4966083;28;20050;-84
2022/07/29 04:24:13;;;;;;;0.00;0.00;;;17.50;90.30;;;;;;4953055;28;20067;-84
2022/07/29 04:26:40;;;;;;;0.00;0.00;;;17.50;90.40;;;;;;4953689;28;20105;-82
2022/07/29 04:29:07;;;;;;;0.00;0.00;;;17.50;91.10;;;;;;4967085;28;20062;-83
2022/07/29 04:31:34;;;;;;;0.00;0.00;;;17.40;91.20;;;;;;4955300;28;20051;-83
2022/07/29 04:34:01;;;;;;;0.00;0.00;;;17.40;91.70;;;;;;4952756;28;20055;-83
2022/07/29 04:36:28;;;;;;;0.00;0.00;;;17.40;91.10;;;;;;4954957;28;20427;-83
2022/07/29 04:38:55;;;;;;;0.00;0.00;;;17.40;91.50;;;;;;4954422;28;20043;-83
2022/07/29 04:41:24;;;;;;;0.10;0.10;;;17.40;91.30;;;;;;4957998;28;20044;-81
2022/07/29 04:44:04;;;;;;;0.00;0.00;;;17.30;91.70;;;;;;4949840;28;20055;-81
2022/07/29 04:46:33;;;;;;;0.00;0.00;;;17.30;91.60;;;;;;4950095;28;20044;-82
2022/07/29 04:49:00;;;;;;;0.00;0.00;;;17.40;91.20;;;;;;4952418;28;20043;-82
2022/07/29 04:51:27;;;;;;;0.00;0.00;;;17.50;90.80;;;;;;4950978;28;20044;-82
2022/07/29 04:53:54;;;;;;;0.00;0.00;;;17.50;90.60;;;;;;4967955;28;20473;-83
2022/07/29 04:56:21;;;;;;;0.10;0.10;;;19.10;90.80;;;;;;4945808;28;20066;-85
2022/07/29 04:58:49;;;;;;;0.00;0.00;;;17.50;90.40;;;;;;4969653;28;20051;-81
2022/07/29 05:01:16;;;;;;;0.00;0.00;;;17.50;90.20;;;;;;4965200;28;20427;-82
2022/07/29 05:03:43;;;;;;;0.00;0.00;;;17.60;90.10;;;;;;4968295;28;20083;-81
2022/07/29 05:06:10;;;;;;;0.00;0.00;;;17.50;90.10;;;;;;4953074;28;20114;-82
2022/07/29 05:08:37;;;;;;;0.00;0.00;;;17.50;90.10;;;;;;4968495;28;20055;-84
2022/07/29 05:11:07;;;;;;;0.00;0.00;;;17.50;89.80;;;;;;4951655;28;20040;-83
2022/07/29 05:13:38;;;;;;;0.00;0.00;;;17.60;89.90;;;;;;4962789;28;20058;-84
2022/07/29 05:16:13;;;;;;;0.00;0.00;;;17.60;89.50;;;;;;4949300;28;20047;-82
2022/07/29 05:18:41;;;;;;;0.00;0.00;;;17.60;90.00;;;;;;4961419;28;20125;-82
2022/07/29 05:21:07;;;;;;;0.00;0.00;;;17.60;89.50;;;;;;4964371;28;20459;-83
2022/07/29 05:23:34;;;;;;;0.00;0.00;;;17.50;89.80;;;;;;4950847;28;20043;-82
2022/07/29 05:26:01;;;;;;;0.00;0.00;;;17.50;90.00;;;;;;4965460;28;20039;-82
2022/07/29 05:28:28;;;;;;;0.00;0.00;;;17.50;89.70;;;;;;4955087;28;20487;-82
2022/07/29 05:30:55;;;;;;;0.00;0.00;;;17.60;89.30;;;;;;4951593;28;20047;-82
2022/07/29 05:33:24;;;;;;;0.00;0.00;;;17.60;88.80;;;;;;4953799;28;20098;-82
2022/07/29 05:36:05;;;;;;;0.00;0.00;;;17.60;88.80;;;;;;4961082;28;20043;-82
2022/07/29 05:38:32;;;;;;;0.00;0.00;;;;;;;;;;4953266;28;20098;-82
2022/07/29 05:40:59;;;;;;;0.03;0.03;;;17.70;88.30;;;;;;4946953;28;20047;-81
2022/07/29 05:43:26;;;;;;;0.00;0.00;;;17.80;89.10;;;;;;4968988;28;20043;-84
2022/07/29 05:45:53;;;;;;;0.00;0.00;;;17.80;88.80;;;;;;4953539;28;21324;-83
2022/07/29 05:48:20;;;;;;;0.00;0.00;;;17.90;89.20;;;;;;4964023;28;20504;-83
2022/07/29 05:50:48;;;;;;;0.00;0.00;;;17.90;89.80;;;;;;4950088;28;20051;-83
2022/07/29 05:53:16;;;;;;;0.00;0.00;;;18.00;89.30;;;;;;4954376;28;20058;-82
2022/07/29 05:55:46;;;;;;;0.00;0.00;;;18.10;88.90;;;;;;4948801;28;20082;-83
2022/07/29 05:58:13;;;;;;;0.00;0.00;;;18.10;89.20;;;;;;4950419;28;20062;-84
2022/07/29 06:00:39;;;;;;;0.00;0.00;;;18.20;88.80;;;;;;4963614;28;20055;-82
2022/07/29 06:03:06;;;;;;;0.00;0.00;;;18.30;88.20;;;;;;4953038;28;20043;-82
2022/07/29 06:05:33;;;;;;;0.00;0.00;;;18.40;88.60;;;;;;4952051;28;20057;-83
2022/07/29 06:08:01;;;;;;;0.00;0.00;;;18.40;88.90;;;;;;4951194;28;20122;-82
2022/07/29 06:10:28;;;;;;;0.00;0.00;;;18.40;88.90;;;;;;4953012;28;20039;-82
2022/07/29 06:12:55;;;;;;;0.00;0.00;;;18.50;89.50;;;;;;4954943;28;20255;-82
2022/07/29 06:15:22;;;;;;;0.00;0.00;;;18.60;89.80;;;;;;4962561;28;20051;-82
2022/07/29 06:17:49;;;;;;;0.00;0.00;;;18.70;89.80;;;;;;4948520;28;20424;-83
2022/07/29 06:20:29;;;;;;;0.00;0.00;;;18.80;88.30;;;;;;4961751;28;20039;-84
2022/07/29 06:22:56;;;;;;;0.00;0.00;;;19.00;88.00;;;;;;4950345;28;20509;-80
2022/07/29 06:25:24;;;;;;;0.00;0.00;;;19.10;88.10;;;;;;4950982;28;20062;-84
2022/07/29 06:27:52;;;;;;;0.00;0.00;;;19.30;87.90;;;;;;4966977;28;20051;-82
2022/07/29 06:30:18;;;;;;;0.00;0.00;;;19.30;88.20;;;;;;4967485;28;20075;-82
2022/07/29 06:32:46;;;;;;;0.00;0.00;;;19.30;88.60;;;;;;4947154;28;20051;-83
2022/07/29 06:35:12;;;;;;;0.00;0.00;;;19.30;87.70;;;;;;4967230;28;20086;-82
2022/07/29 06:37:59;;;;;;;0.00;0.00;;;19.40;87.80;;;;;;4953430;28;20052;-82
2022/07/29 06:43:13;;;;;;;0.00;0.00;;;19.70;86.30;;;;;;4950172;28;20043;-82
2022/07/29 06:45:40;;;;;;;0.00;0.00;;;19.90;86.90;;;;;;4953129;28;20051;-84
2022/07/29 06:48:08;;;;;;;0.00;0.00;;;19.80;87.10;;;;;;4951093;28;20048;-83
2022/07/29 06:50:35;;;;;;;0.00;0.00;;;19.90;86.90;;;;;;4950843;28;20094;-82
2022/07/29 06:53:02;;;;;;;0.00;0.00;;;19.90;85.20;;;;;;4950866;28;20058;-82
2022/07/29 06:55:31;;;;;;;0.00;0.00;;;20.00;86.00;;;;;;4962740;28;20051;-82
2022/07/29 06:57:57;;;;;;;0.00;0.00;;;19.90;85.60;;;;;;4961817;28;20058;-82
2022/07/29 07:00:25;;;;;;;0.00;0.00;;;20.10;84.90;;;;;;4944827;28;20059;-82
2022/07/29 07:02:51;;;;;;;0.00;0.00;;;20.30;84.10;;;;;;4964608;28;20046;-81
2022/07/29 07:05:18;;;;;;;0.00;0.00;;;20.20;84.50;;;;;;4945770;28;20047;-83
2022/07/29 07:07:45;;;;;;;0.00;0.00;;;20.20;84.30;;;;;;4950355;28;20042;-83
2022/07/29 07:10:12;;;;;;;0.00;0.00;;;20.40;83.80;;;;;;4962211;28;20047;-82
2022/07/29 07:12:40;;;;;;;0.00;0.00;;;20.60;84.70;;;;;;4954664;28;20531;-82
2022/07/29 07:15:07;;;;;;;0.00;0.00;;;20.60;82.70;;;;;;4964294;28;21029;-81
2022/07/29 07:17:34;;;;;;;0.00;0.00;;;20.60;83.20;;;;;;4954099;28;20059;-82
2022/07/29 07:20:01;;;;;;;0.00;0.00;;;20.90;82.30;;;;;;4948943;28;20047;-81
2022/07/29 07:22:28;;;;;;;0.00;0.00;;;20.70;84.30;;;;;;4954872;28;20047;-82
2022/07/29 07:24:54;;;;;;;0.00;0.00;;;21.40;85.30;;;;;;4954335;28;20094;-81
2022/07/29 07:27:21;;;;;;;0.00;0.00;;;20.60;84.90;;;;;;4951367;28;20047;-83
2022/07/29 07:29:49;;;;;;;0.00;0.00;;;20.40;85.50;;;;;;4952578;28;20042;-83
2022/07/29 07:32:16;;;;;;;0.00;0.00;;;20.10;86.50;;;;;;4951588;28;20059;-82
2022/07/29 07:34:43;;;;;;;0.00;0.00;;;19.80;86.40;;;;;;4937085;28;20474;-82
2022/07/29 07:37:10;;;;;;;0.00;0.00;;;19.80;87.50;;;;;;4963757;28;20063;-82
2022/07/29 07:39:37;;;;;;;0.00;0.00;;;19.80;88.00;;;;;;4954935;28;20047;-82
2022/07/29 07:42:19;;;;;;;0.00;0.00;;;19.50;88.00;;;;;;4959477;28;20047;-81
2022/07/29 07:44:58;;;;;;;0.00;0.00;;;19.50;89.00;;;;;;4947118;28;20047;-83
2022/07/29 07:47:39;;;;;;;0.00;0.00;;;19.70;88.40;;;;;;4956338;28;20046;-84
2022/07/29 07:50:08;;;;;;;0.00;0.00;;;20.00;88.20;;;;;;4940823;28;20043;-82
2022/07/29 07:52:48;;;;;;;0.00;0.00;;;20.00;87.80;;;;;;4938922;28;20042;-83
2022/07/29 07:55:15;;;;;;;0.00;0.00;;;20.00;87.70;;;;;;4945092;28;20503;-83
2022/07/29 07:57:42;;;;;;;0.00;0.00;;;20.00;87.30;;;;;;4967353;28;20047;-81
2022/07/29 08:00:13;;;;;;;0.05;0.00;;;20.20;87.00;;;;;;4948275;28;20063;-81
2022/07/29 08:02:40;;;;;;;0.00;0.00;;;20.20;88.40;;;;;;4962399;28;20047;-82
2022/07/29 08:05:07;;;;;;;0.00;0.00;;;20.50;86.10;;;;;;4949945;28;20090;-81
2022/07/29 08:07:38;;;;;;;0.00;0.00;;;20.30;86.50;;;;;;4938795;28;20253;-82
2022/07/29 08:10:06;;;;;;;0.00;0.00;;;20.50;85.70;;;;;;4949760;28;20039;-83
2022/07/29 08:12:33;;;;;;;0.00;0.00;;;20.70;85.30;;;;;;4962270;28;20094;-83
2022/07/29 08:15:00;;;;;;;0.00;0.00;;;20.80;84.60;;;;;;4949462;28;20073;-83
2022/07/29 08:17:28;;;;;;;0.00;0.00;;;20.60;86.20;;;;;;4962444;28;20091;-81
2022/07/29 08:19:55;;;;;;;0.00;0.00;;;20.70;86.20;;;;;;4950747;28;20059;-87
2022/07/29 08:22:22;;;;;;;0.00;0.00;;;20.90;85.00;;;;;;4952288;28;20054;-87
2022/07/29 08:24:55;;;;;;;0.00;0.00;;;20.90;85.40;;;;;;4960640;28;20530;-85
2022/07/29 08:27:23;;;;;;;0.00;0.00;;;20.60;84.80;;;;;;4950203;28;20050;-86
2022/07/29 08:30:10;;;;;;;0.00;0.00;;;20.60;85.40;;;;;;4963736;28;20414;-82
2022/07/29 08:32:38;;;;;;;0.00;0.00;;;20.50;85.60;;;;;;4957487;28;20054;-91
2022/07/29 08:35:23;;;;;;;0.00;0.00;;;20.60;84.70;;;;;;4953282;28;20051;-85
2022/07/29 08:37:58;;;;;;;0.00;0.00;;;21.60;85.90;;;;;;4951097;28;20082;-89
2022/07/29 08:40:25;;;;;;;0.00;0.00;;;21.20;86.30;;;;;;4965751;28;20154;-87
2022/07/29 08:42:59;;;;;;;0.00;0.00;;;20.90;85.10;;;;;;4963539;28;20047;-87
2022/07/29 08:45:27;;;;;;;0.00;0.00;;;21.20;84.30;;;;;;4942798;28;20482;-85
2022/07/29 08:52:55;;;;;;;0.00;0.00;;;21.30;84.10;;;;;;4878090;29;20120;-88
2022/07/29 08:56:26;;;;;;;0.00;0.00;;;21.60;83.10;;;;;;4907633;28;20609;-87
2022/07/29 08:58:54;;;;;;;0.00;0.00;;;22.00;83.20;;;;;;4943167;28;20055;-88
2022/07/29 09:01:23;;;;;;;0.00;0.00;;;21.80;82.50;;;;;;4961240;28;20058;-88
2022/07/29 09:04:05;;;;;;;0.00;0.00;;;21.80;82.30;;;;;;4961553;28;20069;-88
2022/07/29 09:06:56;;;;;;;0.00;0.00;;;21.90;82.60;;;;;;4964475;28;20392;-88
2022/07/29 09:09:23;;;;;;;0.00;0.00;;;22.90;83.00;;;;;;4969527;28;20051;-87
2022/07/29 09:11:52;;;;;;;0.00;0.00;;;23.70;82.60;;;;;;4955399;28;20492;-86
2022/07/29 09:14:20;;;;;;;0.00;0.00;;;22.30;82.70;;;;;;4953348;28;20407;-88
2022/07/29 09:16:50;;;;;;;0.00;0.00;;;22.00;83.00;;;;;;4962011;28;20050;-87
2022/07/29 09:19:22;;;;;;;0.00;0.00;;;22.20;83.40;;;;;;4953643;28;20114;-87
2022/07/29 09:21:58;;;;;;;0.00;0.00;;;22.10;82.00;;;;;;4964339;28;20427;-88
2022/07/29 09:24:40;;;;;;;0.00;0.00;;;22.10;83.10;;;;;;4963130;28;20460;-88
2022/07/29 09:27:42;;;;;;;0.00;0.00;;;22.40;82.20;;;;;;4954436;28;20400;-88
2022/07/29 09:32:59;;;;;;;0.00;0.00;;;22.40;81.80;;;;;;4975677;28;20047;-85
2022/07/29 09:35:27;;;;;;;;;;;22.50;81.60;;;;;;4970834;28;20106;-84
2022/07/29 09:37:54;;;;;;;0.00;0.00;;;22.50;81.20;;;;;;4976342;28;19929;-86
2022/07/29 09:40:23;;;;;;;0.05;0.05;;;22.50;81.90;;;;;;4970871;28;20119;-84
2022/07/29 09:42:53;;;;;;;0.00;0.00;;;22.50;81.70;;;;;;4972931;28;20058;-83
2022/07/29 09:45:28;;;;;;;0.00;0.00;;;22.60;81.80;;;;;;4972260;28;20047;-83
2022/07/29 09:47:57;;;;;;;0.00;0.00;;;22.70;80.60;;;;;;4975350;28;20042;-86
2022/07/29 09:50:35;;;;;;;0.00;0.00;;;22.80;81.60;;;;;;4975619;28;20077;-85
2022/07/29 09:53:02;;;;;;;0.00;0.00;;;22.90;80.10;;;;;;4990924;28;20062;-86
2022/07/29 09:55:28;;;;;;;0.00;0.00;;;22.90;79.40;;;;;;4971754;28;20109;-87
2022/07/29 09:58:15;;;;;;;0.00;0.00;;;23.00;79.30;;;;;;4976045;28;20109;-83
2022/07/29 10:00:43;;;;;;;0.00;0.00;;;22.90;79.40;;;;;;4972292;28;20054;-83
2022/07/29 10:03:10;;;;;;;0.00;0.00;;;22.60;80.60;;;;;;4967059;28;20056;-84
2022/07/29 10:05:40;;;;;;;0.00;0.00;;;22.70;80.20;;;;;;4973437;28;20051;-84
2022/07/29 10:08:07;;;;;;;0.00;0.00;;;22.80;80.50;;;;;;4968074;28;20051;-84
2022/07/29 10:10:36;;;;;;;0.00;0.00;;;23.70;77.80;;;;;;4972090;28;20047;-82
2022/07/29 10:13:06;;;;;;;0.00;0.00;;;23.20;78.90;;;;;;4969447;28;20058;-85
2022/07/29 10:15:43;;;;;;;0.00;0.00;;;23.60;78.00;;;;;;4976618;28;20055;-85
2022/07/29 10:18:11;;;;;;;0.00;0.00;;;23.90;77.00;;;;;;4982578;28;20564;-84
2022/07/29 10:20:40;;;;;;;0.00;0.00;;;24.10;75.20;;;;;;4976295;28;20046;-86
2022/07/29 10:23:06;;;;;;;0.00;0.00;;;24.20;73.20;;;;;;4969292;28;20458;-84
2022/07/29 10:25:33;;;;;;;0.00;0.00;;;24.20;72.60;;;;;;4974015;28;20039;-87
2022/07/29 10:28:00;;;;;;;0.00;0.00;;;24.20;72.20;;;;;;4973993;28;20045;-85
2022/07/29 10:30:28;;;;;;;0.00;0.00;;;24.10;73.70;;;;;;4973384;28;20043;-85
2022/07/29 10:33:14;;;;;;;0.00;0.00;;;24.30;73.30;;;;;;4975074;28;20042;-84
2022/07/29 10:35:54;;;;;;;0.00;0.00;;;24.50;72.50;;;;;;4970128;28;20054;-84
2022/07/29 10:38:41;;;;;;;0.00;0.00;;;24.70;72.50;;;;;;4982445;28;20047;-83
2022/07/29 10:41:27;;;;;;;0.00;0.00;;;24.60;72.50;;;;;;4967617;28;20051;-84
2022/07/29 10:44:03;;;;;;;0.00;0.00;;;24.70;72.00;;;;;;4971645;28;20054;-83
2022/07/29 10:46:36;;;;;;;0.00;0.00;;;24.60;71.90;;;;;;4966354;28;20039;-85
2022/07/29 10:49:06;;;;;;;0.00;0.00;;;24.40;73.60;;;;;;4969758;28;20086;-87
2022/07/29 10:51:52;;;;;;;0.00;0.00;;;24.50;72.10;;;;;;4972466;28;20054;-82
2022/07/29 10:54:39;;;;;;;0.00;0.00;;;24.70;73.30;;;;;;4988600;28;20079;-85
2022/07/29 10:57:14;;;;;;;0.00;0.00;;;25.00;71.80;;;;;;4972677;28;20054;-85
2022/07/29 10:59:43;;;;;;;0.00;0.00;;;25.10;71.60;;;;;;4980522;28;20406;-85
2022/07/29 11:02:50;;;;;;;0.00;0.00;;;25.20;71.80;;;;;;4972226;28;20050;-83
2022/07/29 11:05:19;;;;;;;0.00;0.00;;;25.40;70.80;;;;;;4976017;28;20034;-86
2022/07/29 11:08:20;;;;;;;0.00;0.00;;;25.50;71.60;;;;;;4977602;28;20057;-84
2022/07/29 11:11:36;;;;;;;0.00;0.00;;;25.80;71.90;;;;;;4971105;28;20104;-84
2022/07/29 11:14:03;;;;;;;0.00;0.00;;;25.80;72.60;;;;;;4984082;28;20077;-85
2022/07/29 11:17:04;;;;;;;0.00;0.00;;;25.90;70.50;;;;;;4973651;28;20046;-84
2022/07/29 11:19:34;;;;;;;0.00;0.00;;;25.90;71.30;;;;;;4967546;28;20054;-84
2022/07/29 11:22:03;;;;;;;0.00;0.00;;;;;;;;;;4967058;28;20549;-84
2022/07/29 11:24:31;;;;;;;;;;;26.00;71.20;;;;;;4972377;28;20505;-83
2022/07/29 11:27:11;;;;;;;0.00;0.00;;;26.00;71.90;;;;;;4996908;28;20417;-83
2022/07/29 11:29:49;;;;;;;0.00;0.00;;;25.90;70.80;;;;;;4979981;28;20042;-85
2022/07/29 11:32:19;;;;;;;0.00;0.00;;;26.10;71.10;;;;;;4975966;28;20410;-84
2022/07/29 11:35:12;;;;;;;0.00;0.00;;;26.10;71.70;;;;;;4973202;28;20295;-84
2022/07/29 11:37:45;;;;;;;0.00;0.00;;;25.90;72.30;;;;;;4975302;28;20043;-86
2022/07/29 11:40:21;;;;;;;0.00;0.00;;;26.00;72.70;;;;;;4976395;28;20734;-83
2022/07/29 11:42:50;;;;;;;0.00;0.00;;;28.50;74.70;;;;;;4973382;28;20050;-86
2022/07/29 11:45:19;;;;;;;;;;;26.40;71.90;;;;;;4974212;28;20051;-85
2022/07/29 11:48:07;;;;;;;0.00;0.00;;;26.50;69.50;;;;;;4986702;28;19922;-85
2022/07/29 11:50:55;;;;;;;0.00;0.00;;;26.60;70.40;;;;;;4968967;28;20069;-84
2022/07/29 11:53:24;;;;;;;0.00;0.00;;;26.30;70.80;;;;;;4969531;28;20042;-85
2022/07/29 11:55:55;;;;;;;0.00;0.00;;;26.30;71.10;;;;;;4966290;28;20427;-86
2022/07/29 11:58:24;;;;;;;0.00;0.00;;;26.20;70.70;;;;;;4981219;28;20053;-85
2022/07/29 12:00:52;;;;;;;0.00;0.00;;;26.20;71.10;;;;;;4977595;28;20054;-85
2022/07/29 12:03:25;;;;;;;0.00;0.00;;;26.20;71.50;;;;;;4981281;28;20054;-84
2022/07/29 12:06:11;;;;;;;0.00;0.00;;;26.20;72.40;;;;;;4967010;28;20046;-87
2022/07/29 12:08:40;;;;;;;0.00;0.00;;;26.30;74.90;;;;;;4976259;28;20047;-87
2022/07/29 12:11:15;;;;;;;0.00;0.00;;;26.30;70.50;;;;;;4962934;28;20050;-85
2022/07/29 12:13:42;;;;;;;0.00;0.00;;;26.30;70.60;;;;;;4969157;28;20503;-86
2022/07/29 12:16:10;;;;;;;0.00;0.00;;;26.30;72.00;;;;;;4973345;28;20053;-84
2022/07/29 12:18:40;;;;;;;0.00;0.00;;;26.20;71.60;;;;;;4979869;28;20050;-84
2022/07/29 12:21:08;;;;;;;0.10;0.00;;;26.50;71.00;;;;;;4972189;28;20391;-85
2022/07/29 12:23:38;;;;;;;0.00;0.00;;;26.50;71.40;;;;;;4970290;28;20050;-86
2022/07/29 12:26:05;;;;;;;0.00;0.00;;;26.60;72.20;;;;;;4970064;28;20037;-86
2022/07/29 12:28:38;;;;;;;0.00;0.00;;;26.70;73.80;;;;;;4968402;28;20689;-85
2022/07/29 12:31:04;;;;;;;0.00;0.00;;;26.70;72.00;;;;;;4967217;28;20042;-85
2022/07/29 12:33:34;;;;;;;0.00;0.00;;;26.50;71.10;;;;;;4971873;28;20035;-84
2022/07/29 12:36:03;;;;;;;0.00;0.00;;;26.50;73.50;;;;;;4977319;28;20054;-85
2022/07/29 12:38:40;;;;;;;0.00;0.00;;;26.40;71.60;;;;;;4983176;28;20038;-85
2022/07/29 12:41:07;;;;;;;0.00;0.00;;;26.00;73.50;;;;;;4975384;28;20054;-84
2022/07/29 12:43:34;;;;;;;0.00;0.00;;;26.10;73.60;;;;;;4977244;28;20517;-85
2022/07/29 12:46:12;;;;;;;0.00;0.00;;;26.10;73.00;;;;;;4968819;28;20047;-86
2022/07/29 12:48:42;;;;;;;0.00;0.00;;;26.10;73.60;;;;;;4978801;28;20038;-88
2022/07/29 12:51:09;;;;;;;;;;;26.00;73.40;;;;;;4974420;28;20406;-85
2022/07/29 12:53:37;;;;;;;0.00;0.00;;;25.50;72.80;;;;;;4972548;28;19930;-85
2022/07/29 12:56:15;;;;;;;0.00;0.00;;;26.60;73.00;;;;;;4972731;28;20356;-85
2022/07/29 12:59:12;;;;;;;0.00;0.00;;;25.40;73.50;;;;;;4969906;28;20090;-86
2022/07/29 13:01:39;;;;;;;0.00;0.00;;;25.40;73.00;;;;;;4971748;28;20059;-84
2022/07/29 13:04:06;;;;;;;0.00;0.00;;;25.50;72.80;;;;;;4964271;28;20463;-87
2022/07/29 13:06:38;;;;;;;0.00;0.00;;;25.60;74.30;;;;;;4964544;28;20051;-84
2022/07/29 13:09:10;;;;;;;0.00;0.00;;;25.50;74.80;;;;;;4974565;28;20478;-86
2022/07/29 13:11:41;;;;;;;0.00;0.00;;;25.70;75.50;;;;;;4974687;28;20050;-83
2022/07/29 13:14:30;;;;;;;0.00;0.00;;;26.40;74.10;;;;;;4971306;28;20054;-84
2022/07/29 13:17:03;;;;;;;0.00;0.00;;;26.00;74.30;;;;;;4968890;28;20051;-88
2022/07/29 13:19:38;;;;;;;0.00;0.00;;;27.80;74.90;;;;;;4968515;28;20649;-86
2022/07/29 13:22:04;;;;;;;0.00;0.00;;;26.10;72.90;;;;;;4965065;28;20051;-89
2022/07/29 13:24:31;;;;;;;0.00;0.00;;;26.30;73.10;;;;;;4979716;28;20038;-86
2022/07/29 13:27:00;;;;;;;0.00;0.00;;;26.10;73.10;;;;;;4980448;28;20054;-85